Appomattox, VA (24522)

8:44 AM EDT on July 03, 2015 (GMT -0400)
APRSWXNET | | Change Station
CLOSE
Current Station
Personal Weather Station
Location: Appomattox, VA
Elevation: 839 ft
Nearby Weather Stations

Elev 839 ft 37.36 °N, 78.83 °W | Updated 25 minutes ago

Overcast
Overcast
67 °F
Feels Like 67 °F
N
0
Wind Variable Wind from East
Gusts 1.0 mph

Today
High -- | Low -- °F
--% Chance of Precip.
Yesterday
High -- | Low -- °F
Precip. -- in
5:59 AM 8:39 PM
Full, 97% visible
Pressure 30.00 in
Visibility 5.0 miles
Clouds Mostly Cloudy 2500 ft
Mostly Cloudy 3000 ft
Overcast 4900 ft
Dew Point 65 °F
Humidity 93%
Rainfall in
Snow Depth Not available.
UV 1 out of 12
Pollen .50 out of 12
Air Quality Not available.
Flu Activity Not available.
SPECI KLYH 031220Z 00000KT 5SM BR BKN025 BKN030 OVC049 20/18 A3000 RMK AO2 T02000183

More Conditions Fewer Conditions

Pressure 30.00 in
Visibility 5.0 miles
Clouds Mostly Cloudy 2500 ft
Mostly Cloudy 3000 ft
Overcast 4900 ft
Dew Point 65 °F
Humidity 93%
Rainfall in
Snow Depth Not available.
UV 1 out of 12
Pollen .50 out of 12
Air Quality Not available.
Flu Activity Not available.
SPECI KLYH 031220Z 00000KT 5SM BR BKN025 BKN030 OVC049 20/18 A3000 RMK AO2 T02000183

More Conditions Fewer Conditions

10-Day Weather Forecast

×

Almanac

Astronomy

Jul. 03, 2015 Rise Set
Actual Time
Civil Twilight
Nautical Twilight
Astronomical Twilight
Moon
Length of Visible Light
Length of Day
Tomorrow will be .
, % of the Moon is Illuminated

Today's Extremes

State Highs State Lows

Community

WunderPhotos

Upload Photos

1,834,660 photos uploaded!

WunderBlogs® & News

Nearby

Air Quality

  Air Quality AQ Index Pollutant
Not available.

Snow Depth

Station Depth Elevation

Earthquake Activity

City Distance Mag. Time & Date
Minimum magnitude displayed is 2.5.

Coastal Water Temperatures

Place Temperature

Stations

Nearby Weather Stations

Station Location Temp. Windchill Dew Point Humidity Wind Precip. Elev Updated Type